M I D A S
Marine Information and Data Acquisition System
Tripno 1722 of the Zeeleeuw from 2009-02-13 09:01:58 to 2009-02-13 12:51:45
Back to CruiseResearch ActivitiesStationsMapUnderway DataData graphs

EquipmentUnitsComment
TimeDGPSUTC
LatitudeDGPSDM.mWGS84
LongitudeDGPSDM.mWGS84
HeadingGyrodeg 
SOGDGPSknotsSpeed over ground
COGDGPSdegCourse over ground
DepthEcho soundermeters200 kHz
Missing or incorrect values are displayed as -999
Navigation data collected by the RV Zeeleeuw from 2009-02-13 09:01:47 to 2009-02-13 13:00:09
Time Latitude Longitude Heading SOG COG Depth
2009-02-13 09:02:52 51°13.675 2°55.919 114 2.6 299 -999
2009-02-13 09:03:52 51°13.699 2°55.843 105.8 3.8 290 -999
2009-02-13 09:04:52 51°13.706 2°55.752 81.4 2.5 266 -999
2009-02-13 09:05:50 51°13.712 2°55.736 47.5 1.3 22 9.5
2009-02-13 09:06:49 51°13.75 2°55.724 337.6 3.6 329 8.4
2009-02-13 09:07:49 51°13.827 2°55.643 329.7 7.1 330 8.1
2009-02-13 09:08:49 51°13.948 2°55.548 336 8.5 335 8.1
2009-02-13 09:09:49 51°14.079 2°55.453 336.3 8.8 335 8.1
2009-02-13 09:10:49 51°14.207 2°55.336 326.6 9 324 8.2
2009-02-13 09:11:49 51°14.315 2°55.165 313.7 9.4 312 8.3
2009-02-13 09:12:49 51°14.416 2°54.969 313.2 9.8 315 8.7
2009-02-13 09:13:49 51°14.556 2°54.832 349 10.1 345 8.3
2009-02-13 09:14:49 51°14.721 2°54.762 350 10.5 343 7.8
2009-02-13 09:15:49 51°14.89 2°54.676 347.7 10.8 342 7.6
2009-02-13 09:16:49 51°15.059 2°54.592 348.5 10.5 343 6.4
2009-02-13 09:17:49 51°15.227 2°54.509 348.8 10.6 343 6.9
2009-02-13 09:18:49 51°15.399 2°54.451 0.6 10.4 356 7.4
2009-02-13 09:19:49 51°15.573 2°54.452 7.8 10.5 -999 8
2009-02-13 09:20:49 51°15.739 2°54.45 9.5 8.9 1 8.6
2009-02-13 09:21:49 51°15.864 2°54.453 16.1 6.7 6 9.2
2009-02-13 09:22:49 51°15.969 2°54.481 22.3 6.3 11 9.4
2009-02-13 09:23:49 51°16.072 2°54.51 22 6.5 10 9.4
2009-02-13 09:24:49 51°16.179 2°54.541 21.2 6.7 9 9.7
2009-02-13 09:25:49 51°16.278 2°54.562 13.7 4.7 352 9.5
2009-02-13 09:26:49 51°16.323 2°54.48 301.2 4.9 282 9.7
2009-02-13 09:27:48 51°16.296 2°54.361 226.3 4.7 232 9.7
2009-02-13 09:28:48 51°16.27 2°54.306 232.2 1.4 244 9.8
2009-02-13 09:29:49 51°16.26 2°54.28 239.1 1.1 232 9.7
2009-02-13 09:30:49 51°16.252 2°54.256 242.5 1 239 9.7
2009-02-13 09:31:49 51°16.245 2°54.231 254.1 1.1 240 9.8
2009-02-13 09:32:48 51°16.238 2°54.206 267.2 1 245 9.8
2009-02-13 09:33:49 51°16.23 2°54.181 278.9 1.1 240 9.8
2009-02-13 09:34:49 51°16.221 2°54.156 287.6 1.1 242 9.8
2009-02-13 09:35:49 51°16.212 2°54.131 295.2 1.1 239 9.8
2009-02-13 09:36:49 51°16.203 2°54.104 302.4 1.1 242 9.9
2009-02-13 09:37:50 51°16.183 2°54.096 312.7 2 163 -999
2009-02-13 09:38:52 51°16.15 2°54.099 326.7 1.2 225 10
2009-02-13 09:39:50 51°16.169 2°54.087 37.7 2 30 9.8
2009-02-13 09:40:49 51°16.192 2°54.136 47.3 2.7 37 9.9
2009-02-13 09:41:49 51°16.223 2°54.183 70.7 2.5 72 9.9
2009-02-13 09:42:49 51°16.24 2°54.236 56 2 52 9.8
2009-02-13 09:43:49 51°16.255 2°54.271 61.9 1.4 54 9.8
2009-02-13 09:44:49 51°16.259 2°54.297 69.2 0.8 89 9.8
2009-02-13 09:45:49 51°16.258 2°54.309 70.4 0.3 120 9.9
2009-02-13 09:46:48 51°16.255 2°54.311 71.2 0.4 182 9.9
2009-02-13 09:47:49 51°16.249 2°54.306 73.4 0.5 217 9.9
2009-02-13 09:48:49 51°16.242 2°54.295 78.2 0.6 220 9.8
2009-02-13 09:49:49 51°16.233 2°54.282 82.9 0.9 218 9.9
2009-02-13 09:50:49 51°16.223 2°54.266 88.4 0.9 225 9.9
2009-02-13 09:51:49 51°16.212 2°54.248 92.4 1 223 9.9
2009-02-13 09:52:49 51°16.201 2°54.228 96.9 0.8 236 9.9
2009-02-13 09:53:49 51°16.189 2°54.207 101.1 1 236 9.9
2009-02-13 09:54:49 51°16.176 2°54.184 105.7 1.1 230 10.1
2009-02-13 09:55:49 51°16.164 2°54.161 108.6 1.2 229 9.9
2009-02-13 09:56:49 51°16.15 2°54.147 96 0.8 157 9.9
2009-02-13 09:57:48 51°16.153 2°54.166 52.9 1.4 50 10
2009-02-13 09:58:49 51°16.187 2°54.212 39.1 3.6 31 9.9
2009-02-13 09:59:48 51°16.228 2°54.268 48.7 2.8 39 9.9
2009-02-13 10:00:49 51°16.258 2°54.295 34.4 1.6 12 10
2009-02-13 10:01:49 51°16.278 2°54.292 21.4 1 337 9.9
2009-02-13 10:02:49 51°16.29 2°54.275 12.6 1 306 10
2009-02-13 10:03:49 51°16.298 2°54.251 5.4 1.1 290 10.1
2009-02-13 10:04:49 51°16.301 2°54.222 357.1 1.3 272 10.1
2009-02-13 10:05:49 51°16.301 2°54.192 350.1 1.2 265 10
2009-02-13 10:06:49 51°16.298 2°54.159 344.6 1.2 260 10.1
2009-02-13 10:07:49 51°16.293 2°54.125 334.7 1.3 254 10.1
2009-02-13 10:08:49 51°16.286 2°54.09 324.5 1.6 265 10.2
2009-02-13 10:09:49 51°16.3 2°54.053 9.2 1.6 335 10.1
2009-02-13 10:10:49 51°16.315 2°54.075 73.6 1.8 93 10.2
2009-02-13 10:11:48 51°16.295 2°54.15 93.9 4.4 103 10.2
2009-02-13 10:12:49 51°16.279 2°54.253 99.8 3.2 120 10.1
2009-02-13 10:13:49 51°16.251 2°54.301 112.8 2 146 10.1
2009-02-13 10:14:49 51°16.222 2°54.318 123 1.6 169 10.2
2009-02-13 10:15:49 51°16.196 2°54.322 124.9 1.5 180 10.2
2009-02-13 10:16:49 51°16.173 2°54.318 123.5 1.3 189 10.3
2009-02-13 10:17:49 51°16.152 2°54.31 121.7 1.2 199 10.3
2009-02-13 10:18:49 51°16.134 2°54.297 121.9 1.3 209 10.3
2009-02-13 10:19:49 51°16.118 2°54.281 121.4 1.1 214 10.3
2009-02-13 10:20:49 51°16.103 2°54.263 120 1.2 220 10.4
2009-02-13 10:21:49 51°16.088 2°54.243 119 1.1 222 10.4
2009-02-13 10:22:48 51°16.074 2°54.223 118.3 1 203 10.4
2009-02-13 10:23:49 51°16.065 2°54.234 66.4 0.9 65 10.4
2009-02-13 10:24:49 51°16.097 2°54.241 18.1 3.2 4 10.4
2009-02-13 10:25:49 51°16.152 2°54.26 33.3 3.3 24 10.5
2009-02-13 10:26:49 51°16.195 2°54.31 51.5 3.2 49 10.4
2009-02-13 10:27:49 51°16.215 2°54.369 69.7 1.7 76 10.4
2009-02-13 10:28:49 51°16.212 2°54.398 80.7 0.8 119 10.5
2009-02-13 10:29:49 51°16.203 2°54.408 81.7 0.6 160 10.5
2009-02-13 10:30:49 51°16.194 2°54.408 84.4 0.5 200 10.5
2009-02-13 10:31:49 51°16.183 2°54.402 88.5 0.8 207 10.5
2009-02-13 10:32:49 51°16.171 2°54.39 92 1 213 10.5
2009-02-13 10:33:49 51°16.159 2°54.374 95.9 1 222 10.5
2009-02-13 10:34:49 51°16.146 2°54.355 98.9 1.1 222 10.6
2009-02-13 10:35:49 51°16.134 2°54.334 102.7 1.2 227 10.5
2009-02-13 10:36:49 51°16.121 2°54.311 105.1 1.2 232 10.6
2009-02-13 10:37:49 51°16.109 2°54.294 96.2 0.6 182 10.5
2009-02-13 10:38:48 51°16.11 2°54.302 42.5 1.1 12 10.6
2009-02-13 10:39:49 51°16.152 2°54.303 19.1 3.3 3 10.6
2009-02-13 10:40:49 51°16.209 2°54.308 14.5 3.1 354 10.5
2009-02-13 10:41:49 51°16.254 2°54.284 3.3 2.3 338 10.6
2009-02-13 10:42:49 51°16.276 2°54.258 356.1 1.4 310 10.5
2009-02-13 10:43:49 51°16.286 2°54.225 339.7 1.4 281 10.6
2009-02-13 10:44:49 51°16.286 2°54.189 322.9 1.4 263 10.6
2009-02-13 10:45:49 51°16.282 2°54.151 316.4 1.4 264 10.6
2009-02-13 10:46:49 51°16.28 2°54.112 331.9 1.4 270 10.6
2009-02-13 10:47:49 51°16.283 2°54.08 357.2 1 289 10.7
2009-02-13 10:48:49 51°16.286 2°54.06 25.5 0.5 290 10.7
2009-02-13 10:49:49 51°16.287 2°54.054 52.3 0.1 201 10.7
2009-02-13 10:50:49 51°16.284 2°54.057 65.4 0.5 138 10.7
2009-02-13 10:51:49 51°16.28 2°54.067 71.3 0.4 114 10.7
2009-02-13 10:52:49 51°16.277 2°54.081 64 0.6 88 10.7
2009-02-13 10:53:49 51°16.277 2°54.102 65.2 0.9 92 10.7
2009-02-13 10:54:49 51°16.277 2°54.13 71.6 1.1 90 10.6
2009-02-13 10:55:49 51°16.275 2°54.162 72.4 1.3 99 10.7
2009-02-13 10:56:49 51°16.274 2°54.197 71.3 1.4 101 10.7
2009-02-13 10:57:49 51°16.274 2°54.233 70.1 1.4 94 10.7
2009-02-13 10:58:49 51°16.275 2°54.269 69.2 1.4 85 10.7
2009-02-13 10:59:49 51°16.277 2°54.305 69.9 1.4 89 10.7
2009-02-13 11:00:49 51°16.278 2°54.343 70.5 1.4 87 10.6
2009-02-13 11:01:49 51°16.278 2°54.382 70.4 1.5 90 10.8
2009-02-13 11:02:49 51°16.281 2°54.418 62.9 1.3 72 10.7
2009-02-13 11:03:49 51°16.289 2°54.441 47.3 0.8 44 10.8
2009-02-13 11:04:49 51°16.298 2°54.451 37.9 0.7 6 10.9
2009-02-13 11:05:49 51°16.307 2°54.455 35.6 0.5 6 10.9
2009-02-13 11:06:49 51°16.315 2°54.458 38.6 0.4 358 10.8
2009-02-13 11:07:49 51°16.318 2°54.456 36.6 0.4 304 10.7
2009-02-13 11:08:49 51°16.319 2°54.45 34.5 0.2 229 10.8
2009-02-13 11:09:49 51°16.318 2°54.441 34.9 0.4 240 10.8
2009-02-13 11:10:49 51°16.314 2°54.43 37 0.5 242 10.8
2009-02-13 11:11:49 51°16.309 2°54.419 38.7 0.6 228 10.9
2009-02-13 11:12:49 51°16.302 2°54.407 40.2 0.6 221 10.8
2009-02-13 11:13:49 51°16.295 2°54.395 39.7 0.6 222 10.7
2009-02-13 11:14:49 51°16.288 2°54.382 40 0.7 235 10.8
2009-02-13 11:15:49 51°16.28 2°54.369 40.2 0.8 235 10.8
2009-02-13 11:16:49 51°16.272 2°54.354 41.5 0.8 232 10.8
2009-02-13 11:17:49 51°16.263 2°54.339 43.9 0.7 234 10.9
2009-02-13 11:18:49 51°16.254 2°54.326 45.8 0.8 213 11
2009-02-13 11:19:49 51°16.245 2°54.311 46.9 0.8 234 10.9
2009-02-13 11:20:49 51°16.236 2°54.296 46.1 0.7 229 10.9
2009-02-13 11:21:49 51°16.228 2°54.283 36.6 0.6 227 11
2009-02-13 11:22:49 51°16.224 2°54.27 21.9 0.4 256 10.9
2009-02-13 11:23:49 51°16.225 2°54.259 20.5 0.4 316 11.1
2009-02-13 11:24:49 51°16.231 2°54.253 33.4 0.4 1 11
2009-02-13 11:25:49 51°16.238 2°54.257 51 0.4 48 11.1
2009-02-13 11:26:49 51°16.24 2°54.271 71.7 0.7 101 11
2009-02-13 11:27:49 51°16.234 2°54.291 91.6 0.9 120 11
2009-02-13 11:28:49 51°16.224 2°54.312 89.4 0.9 124 11
2009-02-13 11:29:49 51°16.218 2°54.33 70.7 0.5 105 11
2009-02-13 11:30:49 51°16.218 2°54.337 48.7 0.1 13 11
2009-02-13 11:31:49 51°16.221 2°54.335 32.8 0.4 316 11
2009-02-13 11:32:49 51°16.226 2°54.329 26.2 0.4 311 11
2009-02-13 11:33:49 51°16.231 2°54.321 21.3 0.5 316 11.1
2009-02-13 11:34:49 51°16.238 2°54.312 16.7 0.6 323 11.1
2009-02-13 11:35:49 51°16.245 2°54.3 11.6 0.6 316 11.1
2009-02-13 11:36:49 51°16.252 2°54.288 7.1 0.7 307 11.2
2009-02-13 11:37:49 51°16.258 2°54.273 3.1 0.7 300 11.1
2009-02-13 11:38:49 51°16.263 2°54.258 358.7 0.6 297 11.2
2009-02-13 11:39:49 51°16.268 2°54.241 353.9 0.7 292 11.1
2009-02-13 11:40:49 51°16.272 2°54.222 353.6 0.7 287 11.3
2009-02-13 11:41:49 51°16.276 2°54.206 5.1 0.6 290 11.2
2009-02-13 11:42:49 51°16.279 2°54.194 22.5 0.4 290 11.2
2009-02-13 11:43:49 51°16.28 2°54.186 39.9 0.3 293 11.2
2009-02-13 11:44:49 51°16.279 2°54.184 55.4 0.1 238 11.3
2009-02-13 11:45:49 51°16.276 2°54.184 71.5 0.3 165 11.3
2009-02-13 11:46:49 51°16.269 2°54.187 87.3 0.4 165 11.3
2009-02-13 11:47:49 51°16.26 2°54.19 95.5 0.5 167 11.2
2009-02-13 11:48:49 51°16.251 2°54.195 92.4 0.8 165 11.3
2009-02-13 11:49:49 51°16.242 2°54.202 83.8 0.5 153 11.3
2009-02-13 11:50:49 51°16.236 2°54.208 74.2 0.4 147 11.3
2009-02-13 11:51:49 51°16.231 2°54.215 67.2 0.4 142 11.3
2009-02-13 11:52:49 51°16.227 2°54.221 60.3 0.2 138 11.3
2009-02-13 11:53:49 51°16.224 2°54.227 54.9 0.4 132 11.4
2009-02-13 11:54:49 51°16.222 2°54.232 51.6 0.1 117 11.3
2009-02-13 11:55:49 51°16.22 2°54.238 51.2 0.1 89 11.4
2009-02-13 11:56:49 51°16.218 2°54.245 52.1 0.3 116 11.4
2009-02-13 11:57:49 51°16.216 2°54.252 53.8 0.2 55 11.4
2009-02-13 11:58:49 51°16.214 2°54.26 55.3 0.3 109 11.5
2009-02-13 11:59:49 51°16.212 2°54.27 56.7 0.3 94 11.4
2009-02-13 12:00:49 51°16.209 2°54.28 57.3 0.4 109 11.4
2009-02-13 12:01:49 51°16.206 2°54.29 54.6 0.5 114 11.4
2009-02-13 12:02:49 51°16.204 2°54.3 49.2 0.3 91 11.5
2009-02-13 12:03:49 51°16.203 2°54.307 41 0.1 50 11.5
2009-02-13 12:04:49 51°16.204 2°54.309 28.4 0.2 346 11.6
2009-02-13 12:05:49 51°16.207 2°54.309 19.1 0.2 339 11.5
2009-02-13 12:06:49 51°16.211 2°54.307 13.3 0.2 330 11.5
2009-02-13 12:07:49 51°16.215 2°54.304 8.9 0.3 334 11.6
2009-02-13 12:08:49 51°16.219 2°54.3 8.8 0.3 350 11.6
2009-02-13 12:09:49 51°16.224 2°54.298 9.8 0.3 6 11.6
2009-02-13 12:10:49 51°16.229 2°54.297 11.2 0.3 359 11.6
2009-02-13 12:11:49 51°16.235 2°54.297 13.2 0.4 26 11.7
2009-02-13 12:12:49 51°16.24 2°54.298 15.1 0.4 8 11.7
2009-02-13 12:13:49 51°16.246 2°54.3 15.2 0.3 6 11.6
2009-02-13 12:14:49 51°16.252 2°54.303 14.1 0.3 24 11.6
2009-02-13 12:15:49 51°16.257 2°54.305 13.6 0.3 11 11.7
2009-02-13 12:16:49 51°16.263 2°54.307 11.6 0.4 13 11.7
2009-02-13 12:17:49 51°16.275 2°54.309 10.7 1.3 5 11.6
2009-02-13 12:18:49 51°16.305 2°54.351 58.2 4.2 67 11.7
2009-02-13 12:19:49 51°16.274 2°54.483 133.8 7.4 143 11.8
2009-02-13 12:20:49 51°16.126 2°54.536 174.3 10.1 177 11.6
2009-02-13 12:21:48 51°15.953 2°54.516 193 10.8 195 11.3
2009-02-13 12:22:49 51°15.78 2°54.41 201.5 11.2 201 10.9
2009-02-13 12:23:49 51°15.606 2°54.303 198.2 11.2 202 10.5
2009-02-13 12:24:49 51°15.43 2°54.213 192.1 11.1 195 10.1
2009-02-13 12:25:49 51°15.268 2°54.148 193.6 7.7 196 12.1
2009-02-13 12:26:49 51°15.188 2°54.072 230.6 4.6 233 9.4
2009-02-13 12:27:49 51°15.166 2°53.972 273 3.8 269 10.1
2009-02-13 12:28:48 51°15.186 2°53.887 317.7 3.3 310 10.1
2009-02-13 12:29:49 51°15.231 2°53.851 2.6 2.6 353 10.3
2009-02-13 12:30:49 51°15.266 2°53.864 35.7 2 30 10.3
2009-02-13 12:31:49 51°15.285 2°53.899 60.5 1.6 64 10.2
2009-02-13 12:32:49 51°15.291 2°53.936 74.8 1.3 83 10.2
2009-02-13 12:33:49 51°15.289 2°53.971 86.3 1.3 101 10.1
2009-02-13 12:34:49 51°15.283 2°54.005 95.5 1.3 112 10.5
2009-02-13 12:35:48 51°15.276 2°54.037 94.6 1.3 109 12.1
2009-02-13 12:36:49 51°15.27 2°54.072 93.4 1.3 106 12.2
2009-02-13 12:37:48 51°15.263 2°54.106 94 1.4 104 12.3
2009-02-13 12:38:49 51°15.259 2°54.14 90.3 1.2 95 12.4
2009-02-13 12:39:49 51°15.256 2°54.171 87.3 1.4 104 12.6
2009-02-13 12:40:49 51°15.253 2°54.204 96.7 1.4 102 12.7
2009-02-13 12:41:49 51°15.244 2°54.242 116.4 1.7 120 11.2
2009-02-13 12:42:49 51°15.225 2°54.274 143 1.6 141 10.7
2009-02-13 12:43:49 51°15.195 2°54.295 160.5 2.5 161 12.4
2009-02-13 12:44:49 51°15.125 2°54.327 167 6 166 12.6
2009-02-13 12:45:49 51°14.991 2°54.349 178 9.5 178 9.2
2009-02-13 12:46:48 51°14.822 2°54.326 185.9 11.2 184 11
2009-02-13 12:47:49 51°14.668 2°54.478 133 11.5 135 11.4
2009-02-13 12:48:49 51°14.527 2°54.7 136.3 12 134 11.6
2009-02-13 12:49:49 51°14.41 2°54.96 124.6 12 125 11.6
2009-02-13 12:50:49 51°14.288 2°55.218 130.5 11.3 133 11.6
2009-02-13 12:51:53 51°14.145 2°55.391 151.1 9.6 152 -999
2009-02-13 12:52:52 51°14.01 2°55.492 154.4 9 155 10.8
2009-02-13 12:53:52 51°13.895 2°55.581 154.2 6.8 154 10.9
2009-02-13 12:54:50 51°13.793 2°55.667 148.2 7.5 146 11.2
2009-02-13 12:55:50 51°13.712 2°55.788 128.6 6 128 12.4
2009-02-13 12:56:49 51°13.676 2°55.905 109.3 4 109 8.8
2009-02-13 12:57:49 51°13.663 2°55.956 121.4 0.8 121 7
2009-02-13 12:58:49 51°13.661 2°55.959 115.2 -999 64 -999
2009-02-13 12:59:49 51°13.663 2°55.96 124.1 -999 303 5.5